Time;durP1;ratioP1;P1;durP2;ratioP2;P2;SDS_P1;SDS_P2;PMS_P1;PMS_P2;Temp;Humidity;BMP_temperature;BMP_pressure;BME280_temperature;BME280_humidity;BME280_pressure;Samples;Min_cycle;Max_cycle;Signal;HPM_P1;HPM_P2
2022/02/05 00:03:17;;;;;;;5.85;2.65;;;;;;;2.72;100.00;101453.31;10458530;28;20056;-55
2022/02/05 00:45:46;;;;;;;7.68;3.42;;;;;;;3.07;100.00;101486.44;10457738;28;20067;-56
2022/02/05 00:50:55;;;;;;;10.68;3.15;;;;;;;2.95;100.00;101491.78;10457324;28;20393;-55
2022/02/05 00:56:19;;;;;;;22.80;4.10;;;;;;;2.89;100.00;101500.50;10456017;28;20128;-55
2022/02/05 01:01:22;;;;;;;9.45;2.45;;;;;;;2.90;100.00;101493.59;10457522;28;20057;-54
2022/02/05 01:06:24;;;;;;;9.98;2.30;;;;;;;2.86;100.00;101510.00;10456983;28;20048;-53
2022/02/05 01:11:26;;;;;;;11.68;2.85;;;;;;;2.79;100.00;101512.72;10456041;28;20067;-53
2022/02/05 01:16:44;;;;;;;20.80;3.80;;;;;;;2.75;100.00;101528.28;10456670;28;20049;-56
2022/02/05 01:21:49;;;;;;;9.43;3.75;;;;;;;2.83;100.00;101533.38;10456853;28;20052;-56
2022/02/05 01:26:59;;;;;;;7.90;2.22;;;;;;;2.77;100.00;101540.31;10456085;28;20059;-55
2022/02/05 01:32:06;;;;;;;12.95;2.33;;;;;;;2.71;100.00;101542.13;10457570;28;20048;-52
2022/02/05 02:30:04;;;;;;;13.40;3.28;;;;;;;2.78;100.00;101608.41;10463008;28;20045;-55
2022/02/05 02:35:12;;;;;;;11.83;3.33;;;;;;;2.59;100.00;101610.38;10462676;28;20052;-55
2022/02/05 02:45:24;;;;;;;11.50;3.20;;;;;;;2.77;100.00;101619.63;10462831;28;20497;-54
2022/02/05 02:56:23;;;;;;;10.85;3.88;;;;;;;2.73;100.00;101633.47;10461981;28;20076;-57
2022/02/05 03:01:17;;;;;;;11.35;2.92;;;;;;;2.67;100.00;101626.63;10461746;28;20052;-56
2022/02/05 03:06:20;;;;;;;10.82;3.58;;;;;;;2.63;100.00;101640.47;10461392;28;20405;-55
2022/02/05 03:11:23;;;;;;;8.07;3.22;;;;;;;2.68;100.00;101653.34;10461332;28;20049;-58
2022/02/05 03:16:28;;;;;;;16.88;3.80;;;;;;;2.71;100.00;101653.34;10460802;28;20493;-56
2022/02/05 03:21:31;;;;;;;11.15;3.45;;;;;;;2.63;100.00;101660.31;10461553;28;20148;-55
2022/02/05 03:26:35;;;;;;;17.92;4.72;;;;;;;2.73;100.00;101661.91;10460473;28;20492;-54
2022/02/05 03:31:38;;;;;;;17.67;3.95;;;;;;;2.67;100.00;101674.91;10460320;28;20056;-55
2022/02/05 03:36:41;;;;;;;10.52;4.40;;;;;;;2.64;100.00;101677.50;10459194;28;20133;-54
2022/02/05 03:41:43;;;;;;;17.38;4.97;;;;;;;2.56;100.00;101672.44;10459992;28;20401;-57
2022/02/05 03:46:47;;;;;;;12.85;4.22;;;;;;;2.51;100.00;101679.38;10459769;28;20060;-54
2022/02/05 03:51:50;;;;;;;16.42;4.57;;;;;;;2.40;100.00;101680.34;10459273;28;20477;-51
2022/02/05 03:56:53;;;;;;;10.45;4.65;;;;;;;2.45;100.00;101687.19;10459401;28;20049;-54
2022/02/05 04:01:55;;;;;;;11.73;4.47;;;;;;;2.44;100.00;101683.75;10458287;28;20056;-56
2022/02/05 04:06:58;;;;;;;14.25;3.92;;;;;;;2.43;100.00;101679.44;10458174;28;20060;-57
2022/02/05 04:17:17;;;;;;;18.05;4.22;;;;;;;2.59;100.00;101690.50;10458774;28;20049;-56
2022/02/05 04:22:20;;;;;;;10.05;4.53;;;;;;;2.54;100.00;101695.72;10458568;28;20049;-56
2022/02/05 04:27:22;;;;;;;9.85;4.53;;;;;;;2.64;100.00;101705.97;10458350;28;20057;-54
2022/02/05 04:32:24;;;;;;;10.93;3.55;;;;;;;2.45;100.00;101715.63;10458165;28;20052;-52
2022/02/05 04:37:29;;;;;;;12.52;4.38;;;;;;;2.55;100.00;101714.66;10457656;28;20045;-55
2022/02/05 04:42:43;;;;;;;16.10;4.82;;;;;;;2.34;100.00;101715.72;10457941;28;20059;-58
2022/02/05 04:48:24;;;;;;;15.00;4.35;;;;;;;2.39;100.00;101721.72;10457458;28;20060;-56
2022/02/05 05:08:53;;;;;;;17.00;5.38;;;;;;;2.54;100.00;101750.00;10457281;28;20041;-54
2022/02/05 05:24:19;;;;;;;15.98;6.28;;;;;;;2.57;100.00;101772.38;10456620;28;20045;-56
2022/02/05 05:29:22;;;;;;;12.75;5.32;;;;;;;2.61;100.00;101776.66;10456241;28;20067;-56
2022/02/05 05:34:24;;;;;;;14.02;5.53;;;;;;;2.74;100.00;101774.81;10456158;28;20420;-57
2022/02/05 05:39:31;;;;;;;19.00;6.82;;;;;;;2.72;100.00;101777.44;10456302;28;20049;-57
2022/02/05 05:44:56;;;;;;;19.25;6.32;;;;;;;2.71;100.00;101786.06;10456039;28;20063;-55
2022/02/05 05:50:09;;;;;;;17.27;5.57;;;;;;;2.78;100.00;101790.28;10456076;28;20060;-53
2022/02/05 05:55:14;;;;;;;13.68;5.45;;;;;;;2.83;100.00;101792.84;10456004;28;20071;-55
2022/02/05 06:00:16;;;;;;;16.20;6.47;;;;;;;2.80;100.00;101798.03;10460263;28;20507;-54
2022/02/05 06:05:19;;;;;;;19.77;6.53;;;;;;;2.79;100.00;101792.03;10463533;28;20421;-57
2022/02/05 06:10:21;;;;;;;12.07;6.05;;;;;;;2.68;100.00;101799.00;10463678;28;20049;-53
2022/02/05 06:15:24;;;;;;;7.18;5.18;;;;;;;2.55;100.00;101795.66;10463253;28;20056;-54
2022/02/05 06:20:26;;;;;;;18.02;6.50;;;;;;;2.54;100.00;101803.44;10463371;28;20071;-58
2022/02/05 06:25:31;;;;;;;20.27;7.13;;;;;;;2.42;100.00;101810.44;10463035;28;20057;-55
2022/02/05 06:30:34;;;;;;;14.02;7.32;;;;;;;2.39;100.00;101818.19;10463220;28;20051;-55
2022/02/05 06:35:36;;;;;;;15.43;5.85;;;;;;;2.37;100.00;101819.94;10461512;28;20056;-54
2022/02/05 06:40:39;;;;;;;16.58;6.43;;;;;;;2.34;100.00;101824.28;10461781;28;20049;-56
2022/02/05 06:45:46;;;;;;;16.45;7.03;;;;;;;2.26;100.00;101832.06;10462102;28;20118;-54
2022/02/05 06:50:48;;;;;;;16.20;6.22;;;;;;;2.41;100.00;101834.53;10462228;28;20044;-53
2022/02/05 06:55:50;;;;;;;12.73;5.10;;;;;;;2.53;100.00;101837.91;10461888;28;20045;-55
2022/02/05 07:00:53;;;;;;;21.67;6.93;;;;;;;2.54;100.00;101839.63;10461491;28;20063;-54
2022/02/05 07:05:56;;;;;;;12.23;5.88;;;;;;;2.59;100.00;101845.66;10461439;28;20083;-54
2022/02/05 07:10:59;;;;;;;24.25;7.30;;;;;;;2.58;100.00;101852.53;10460187;28;20060;-53
2022/02/05 07:16:09;;;;;;;20.85;6.25;;;;;;;2.52;100.00;101877.56;10461679;28;20041;-56
2022/02/05 07:21:30;;;;;;;12.60;5.13;;;;;;;2.52;100.00;101869.81;10460899;28;20509;-55
2022/02/05 07:31:56;;;;;;;20.83;7.17;;;;;;;2.51;100.00;101876.72;10460535;28;20045;-51
2022/02/05 07:37:01;;;;;;;13.55;5.88;;;;;;;2.47;100.00;101887.94;10460153;28;20041;-56
2022/02/05 07:42:04;;;;;;;21.85;6.20;;;;;;;2.43;100.00;101881.06;10459899;28;21289;-53
2022/02/05 07:47:07;;;;;;;16.15;6.35;;;;;;;2.37;100.00;101897.47;10460214;28;20068;-52
2022/02/05 07:52:11;;;;;;;19.27;5.45;;;;;;;2.99;100.00;101886.69;10459613;28;20053;-55
2022/02/05 07:57:13;;;;;;;14.85;5.03;;;;;;;3.42;100.00;101903.56;10458086;28;20055;-52
2022/02/05 08:02:16;;;;;;;10.05;4.88;;;;;;;3.68;100.00;101908.47;10458229;28;20053;-52
2022/02/05 08:07:19;;;;;;;14.90;5.93;;;;;;;3.37;100.00;101908.78;10459164;28;20056;-54
2022/02/05 08:12:21;;;;;;;12.60;5.28;;;;;;;3.25;100.00;101904.59;10459126;28;20053;-54
2022/02/05 08:17:27;;;;;;;15.15;5.57;;;;;;;3.49;100.00;101913.84;10459350;28;20055;-53
2022/02/05 08:22:30;;;;;;;17.80;5.40;;;;;;;4.35;100.00;101903.34;10457810;28;20041;-56
2022/02/05 08:27:32;;;;;;;11.63;3.83;;;;;;;4.88;100.00;101895.66;10457050;28;20535;-55
2022/02/05 08:32:34;;;;;;;10.70;4.80;;;;;;;5.53;96.17;101877.19;10458164;28;20053;-55
2022/02/05 08:37:45;;;;;;;16.73;5.38;;;;;;;5.54;95.80;101897.94;10457978;28;20052;-57
2022/02/05 08:42:48;;;;;;;13.85;4.50;;;;;;;5.48;96.58;101894.59;10457731;28;20074;-53
2022/02/05 08:47:53;;;;;;;12.07;4.68;;;;;;;5.45;95.67;101892.09;10456568;28;20075;-54
2022/02/05 08:52:56;;;;;;;15.10;4.43;;;;;;;5.98;94.95;101892.78;10457403;28;20404;-56
2022/02/05 08:57:59;;;;;;;12.27;4.07;;;;;;;6.83;91.62;101903.94;10457710;28;20053;-53
2022/02/05 09:03:04;;;;;;;15.65;4.25;;;;;;;7.58;94.02;101911.56;10457228;28;20076;-55
2022/02/05 09:08:20;;;;;;;12.55;3.95;;;;;;;6.87;89.27;101914.22;10456703;28;20405;-53
2022/02/05 09:19:01;;;;;;;10.50;3.75;;;;;;;6.93;87.21;101918.44;10444456;28;20405;-55
2022/02/05 09:24:06;;;;;;;12.93;4.68;;;;;;;6.42;88.22;101921.34;10456500;28;20130;-56
2022/02/05 09:29:20;;;;;;;15.30;4.35;;;;;;;6.84;85.58;101909.09;10456333;28;20419;-53
2022/02/05 09:34:23;;;;;;;11.77;3.47;;;;;;;7.86;86.98;101914.25;10458589;28;20049;-56
2022/02/05 09:39:25;;;;;;;12.48;3.97;;;;;;;7.91;80.19;101927.19;10465519;28;20045;-57
2022/02/05 09:44:29;;;;;;;15.90;3.40;;;;;;;7.90;83.47;101941.09;10464950;28;20061;-57
2022/02/05 09:49:32;;;;;;;10.10;3.55;;;;;;;7.42;80.33;101937.19;10464687;28;20045;-56
2022/02/05 09:54:36;;;;;;;16.08;3.70;;;;;;;8.43;79.89;101920.47;10464824;28;20053;-55
2022/02/05 09:59:53;;;;;;;13.18;4.63;;;;;;;8.62;78.01;101919.91;10464100;28;20059;-58
2022/02/05 10:05:04;;;;;;;9.73;3.28;;;;;;;9.51;80.45;101934.41;10464583;28;20052;-55
2022/02/05 10:10:24;;;;;;;11.05;3.55;;;;;;;8.86;77.09;101926.09;10463883;28;20532;-57
2022/02/05 10:15:34;;;;;;;12.35;3.78;;;;;;;9.28;76.13;101931.69;10464017;28;20056;-56
2022/02/05 10:20:41;;;;;;;8.27;3.20;;;;;;;11.28;73.35;101925.00;10463481;28;20049;-58
2022/02/05 10:25:49;;;;;;;9.70;3.38;;;;;;;10.55;75.06;101914.84;10463095;28;20420;-58
2022/02/05 10:30:54;;;;;;;9.25;3.03;;;;;;;10.55;72.89;101909.63;10462046;28;20045;-58
2022/02/05 10:36:23;;;;;;;9.35;3.30;;;;;;;10.75;70.75;101914.06;10462543;28;20051;-58
2022/02/05 10:46:42;;;;;;;5.35;2.35;;;;;;;11.14;74.71;101912.50;10462305;28;20063;-58
2022/02/05 10:51:47;;;;;;;11.63;2.75;;;;;;;10.97;69.02;101918.44;10462413;28;20045;-58
2022/02/05 10:57:12;;;;;;;9.80;2.90;;;;;;;9.71;79.22;101897.94;10461729;28;20052;-56
2022/02/05 11:07:37;;;;;;;9.95;2.75;;;;;;;10.75;72.00;101905.38;10461789;28;20056;-58
2022/02/05 11:12:51;;;;;;;12.10;3.22;;;;;;;7.72;77.59;101927.69;10460302;28;20048;-53
2022/02/05 11:18:08;;;;;;;9.85;3.75;;;;;;;7.68;77.56;101913.00;10460586;28;20045;-58
2022/02/05 11:23:11;;;;;;;13.13;3.60;;;;;;;9.15;71.24;101912.09;10460124;28;20048;-56
2022/02/05 11:28:13;;;;;;;14.98;3.15;;;;;;;8.36;80.27;101917.16;10460691;28;20057;-56
2022/02/05 11:33:29;;;;;;;10.45;3.15;;;;;;;8.72;78.49;101900.41;10460530;28;20402;-57
2022/02/05 11:38:36;;;;;;;14.93;2.90;;;;;;;7.93;79.58;101884.50;10460602;28;20099;-58
2022/02/05 11:43:45;;;;;;;9.32;3.20;;;;;;;9.28;80.18;101902.94;10460772;28;20382;-58
2022/02/05 11:48:57;;;;;;;11.77;3.17;;;;;;;8.23;79.06;101887.09;10459862;28;20045;-56
2022/02/05 11:54:05;;;;;;;9.88;3.05;;;;;;;7.31;80.86;101879.28;10459657;28;20052;-53
2022/02/05 11:59:07;;;;;;;6.75;2.78;;;;;;;7.34;77.69;101872.22;10458850;28;20074;-55
2022/02/05 12:04:23;;;;;;;11.27;2.75;;;;;;;8.37;77.61;101865.81;10458296;28;20056;-57
2022/02/05 12:09:49;;;;;;;11.68;3.28;;;;;;;7.93;75.89;101862.78;10459993;28;20123;-56
2022/02/05 12:15:13;;;;;;;10.77;3.42;;;;;;;7.52;78.77;101865.69;10454072;28;20477;-57
2022/02/05 12:20:23;;;;;;;11.57;3.00;;;;;;;8.11;78.14;101875.28;10458762;28;20053;-56
2022/02/05 12:25:25;;;;;;;9.50;2.33;;;;;;;7.61;79.20;101873.22;10457395;28;20497;-57
2022/02/05 12:30:36;;;;;;;15.68;2.45;;;;;;;7.50;75.28;101864.00;10458194;28;20060;-57
2022/02/05 12:35:53;;;;;;;11.95;2.65;;;;;;;6.94;75.67;101864.59;10458605;28;20045;-56
2022/02/05 12:40:55;;;;;;;17.02;4.15;;;;;;;7.28;78.50;101843.75;10458017;28;20045;-55
2022/02/05 12:46:08;;;;;;;10.43;2.60;;;;;;;7.08;74.65;101844.28;10457170;28;20060;-52
2022/02/05 12:51:13;;;;;;;10.30;2.55;;;;;;;7.29;74.29;101845.44;10457401;28;20048;-57
2022/02/05 12:56:17;;;;;;;10.27;2.35;;;;;;;7.15;73.25;101858.84;10456189;28;20051;-56
2022/02/05 13:01:20;;;;;;;7.93;2.17;;;;;;;6.95;72.34;101846.34;10457263;28;20045;-58
2022/02/05 13:06:23;;;;;;;10.75;2.65;;;;;;;6.81;74.05;101828.47;10457292;28;20064;-53
2022/02/05 13:11:29;;;;;;;14.52;2.70;;;;;;;6.93;75.92;101831.66;10455715;28;20072;-52
2022/02/05 13:16:40;;;;;;;6.78;2.45;;;;;;;9.05;69.55;101795.75;10456409;28;20055;-59
2022/02/05 13:27:45;;;;;;;7.07;1.92;;;;;;;9.13;65.98;101791.09;10456799;28;20045;-56
2022/02/05 13:38:19;;;;;;;11.18;2.13;;;;;;;7.82;69.76;101796.16;10455251;28;20056;-57
2022/02/05 13:43:30;;;;;;;13.30;2.72;;;;;;;8.25;70.06;101761.84;10456705;28;20048;-57
2022/02/05 13:48:32;;;;;;;14.70;3.53;;;;;;;8.28;66.95;101773.03;10456453;28;20053;-53
2022/02/05 13:53:36;;;;;;;9.80;3.30;;;;;;;7.41;69.91;101780.00;10456025;28;20053;-53
2022/02/05 13:58:40;;;;;;;8.30;3.35;;;;;;;7.43;70.87;101759.09;10454518;28;20056;-57
2022/02/05 14:03:42;;;;;;;12.90;2.88;;;;;;;7.60;72.91;101763.84;10455936;28;20049;-56
2022/02/05 14:08:47;;;;;;;14.02;2.78;;;;;;;7.54;72.03;101746.59;10455649;28;20049;-53
2022/02/05 14:14:07;;;;;;;9.90;2.85;;;;;;;8.28;69.68;101744.31;10455675;28;20049;-54
2022/02/05 14:19:20;;;;;;;7.30;2.47;;;;;;;8.51;68.89;101756.66;10455974;28;20489;-57
2022/02/05 14:24:35;;;;;;;12.70;3.17;;;;;;;9.97;62.31;101747.88;10462281;28;20053;-54
2022/02/05 14:35:10;;;;;;;12.27;3.13;;;;;;;7.23;71.73;101742.28;10462708;28;20049;-58
2022/02/05 14:40:26;;;;;;;8.60;2.78;;;;;;;7.20;71.62;101746.75;10463084;28;20045;-56
2022/02/05 14:45:29;;;;;;;8.98;2.60;;;;;;;6.95;70.09;101728.34;10462484;28;20523;-56
2022/02/05 14:50:31;;;;;;;9.23;3.20;;;;;;;7.05;71.44;101720.22;10462224;28;20393;-58
2022/02/05 14:55:33;;;;;;;5.53;3.53;;;;;;;7.06;72.22;101728.88;10462112;28;20072;-56
2022/02/05 15:00:36;;;;;;;9.98;3.13;;;;;;;7.26;75.16;101717.88;10461968;28;20048;-55
2022/02/05 15:05:39;;;;;;;5.90;2.42;;;;;;;6.91;74.11;101718.88;10461993;28;20049;-58
2022/02/05 15:10:41;;;;;;;5.65;2.25;;;;;;;6.99;74.69;101706.50;10461397;28;20413;-55
2022/02/05 15:15:52;;;;;;;11.20;2.60;;;;;;;7.01;76.31;101710.78;10461582;28;20080;-55
2022/02/05 15:20:54;;;;;;;16.48;3.08;;;;;;;6.93;76.01;101691.94;10461287;28;20045;-57
2022/02/05 15:26:01;;;;;;;10.00;2.85;;;;;;;6.91;78.05;101696.31;10460863;28;20056;-58
2022/02/05 15:31:04;;;;;;;10.02;3.13;;;;;;;6.94;76.59;101693.63;10459556;28;20052;-53
2022/02/05 15:36:08;;;;;;;6.40;2.42;;;;;;;6.75;76.50;101685.47;10460409;28;20045;-56
2022/02/05 15:46:15;;;;;;;12.13;2.63;;;;;;;6.78;79.55;101682.78;10460023;28;20066;-54
2022/02/05 15:51:19;;;;;;;19.90;4.05;;;;;;;6.66;80.56;101668.34;10459970;28;20409;-57
2022/02/05 15:56:27;;;;;;;11.88;3.30;;;;;;;6.53;79.50;101668.75;10459759;28;20049;-56
2022/02/05 16:01:30;;;;;;;10.88;4.30;;;;;;;6.57;79.65;101654.72;10459985;28;20045;-57
2022/02/05 16:06:36;;;;;;;9.63;3.70;;;;;;;6.43;81.18;101637.75;10459424;28;20110;-53
2022/02/05 16:11:38;;;;;;;14.63;4.43;;;;;;;6.40;82.31;101639.56;10459434;28;20049;-54
2022/02/05 16:16:40;;;;;;;8.60;3.40;;;;;;;6.30;83.67;101639.84;10458660;28;20049;-54
2022/02/05 16:21:43;;;;;;;9.82;4.13;;;;;;;6.36;83.40;101623.22;10458227;28;20048;-55
2022/02/05 16:26:45;;;;;;;10.07;3.80;;;;;;;6.33;83.13;101624.13;10455984;28;20049;-55
2022/02/05 16:31:49;;;;;;;18.70;5.00;;;;;;;6.35;82.87;101616.28;10456345;28;20049;-58
2022/02/05 16:36:53;;;;;;;13.48;3.38;;;;;;;6.29;84.07;101612.09;10457382;28;20049;-55
2022/02/05 16:41:56;;;;;;;12.60;3.25;;;;;;;6.23;83.17;101601.84;10457640;28;20048;-54
2022/02/05 16:46:59;;;;;;;15.10;3.95;;;;;;;6.27;83.39;101594.81;10457296;28;20048;-57
2022/02/05 16:52:01;;;;;;;8.75;3.20;;;;;;;6.35;83.07;101589.44;10457450;28;20094;-55
2022/02/05 16:57:04;;;;;;;11.85;3.38;;;;;;;6.37;81.79;101583.31;10457700;28;20052;-56
2022/02/05 17:02:08;;;;;;;8.63;2.40;;;;;;;6.20;84.64;101578.53;10457537;28;20056;-53
2022/02/05 17:07:10;;;;;;;11.77;3.20;;;;;;;6.22;85.16;101570.69;10457678;28;20053;-53
2022/02/05 17:12:14;;;;;;;12.73;2.45;;;;;;;6.18;83.97;101574.28;10457049;28;20057;-57
2022/02/05 17:17:18;;;;;;;10.65;2.45;;;;;;;6.28;84.24;101566.19;10456695;28;20076;-57
2022/02/05 17:22:29;;;;;;;15.30;3.05;;;;;;;6.22;84.85;101550.75;10456548;28;20477;-54
2022/02/05 17:27:32;;;;;;;14.40;5.57;;;;;;;6.21;83.56;101551.66;10456536;28;20501;-56
2022/02/05 17:32:34;;;;;;;11.65;2.85;;;;;;;6.21;84.38;101548.19;10456614;28;20055;-57
2022/02/05 17:37:38;;;;;;;12.43;3.50;;;;;;;6.16;86.51;101537.91;10456630;28;20045;-55
2022/02/05 17:42:41;;;;;;;11.70;2.63;;;;;;;6.25;86.75;101542.84;10455991;28;20060;-55
2022/02/05 17:47:43;;;;;;;19.08;2.67;;;;;;;6.30;84.49;101538.41;10456361;28;20052;-55
2022/02/05 17:52:45;;;;;;;14.88;3.20;;;;;;;6.21;85.79;101532.59;10456097;28;20428;-56
2022/02/05 17:57:52;;;;;;;9.90;2.35;;;;;;;6.22;87.14;101519.56;10462320;28;20055;-54
2022/02/05 18:03:01;;;;;;;11.18;2.60;;;;;;;6.29;86.60;101518.47;10464499;28;20053;-53
2022/02/05 18:13:39;;;;;;;6.22;2.22;;;;;;;6.26;87.20;101523.75;10463101;28;20049;-53
2022/02/05 18:18:36;;;;;;;17.92;3.90;;;;;;;6.33;87.43;101503.63;10476194;28;20049;-55
2022/02/05 18:23:39;;;;;;;25.48;3.67;;;;;;;6.37;87.69;101494.88;10463370;28;20045;-55
2022/02/05 18:28:42;;;;;;;13.27;2.95;;;;;;;6.37;86.85;101487.06;10463023;28;20493;-55
2022/02/05 18:33:44;;;;;;;12.13;3.45;;;;;;;6.38;87.69;101483.56;10463006;28;20049;-55
2022/02/05 18:38:46;;;;;;;9.18;2.72;;;;;;;6.36;89.53;101480.16;10462823;28;20051;-56
2022/02/05 18:43:52;;;;;;;13.50;2.75;;;;;;;6.37;88.46;101478.38;10463222;28;20051;-55
2022/02/05 18:48:55;;;;;;;6.30;2.15;;;;;;;6.30;90.15;101456.91;10462383;28;20107;-51
2022/02/05 18:53:59;;;;;;;16.13;2.72;;;;;;;6.35;89.17;101452.41;10462384;28;20056;-56
2022/02/05 18:59:02;;;;;;;11.43;2.90;;;;;;;6.24;92.63;101452.75;10475062;28;20049;-54
2022/02/05 19:19:42;;;;;;;18.40;6.00;;;;;;;5.97;100.00;101435.31;10460907;28;20049;-57
2022/02/05 19:24:44;;;;;;;12.77;3.40;;;;;;;5.95;100.00;101433.59;10461370;28;20052;-55
2022/02/05 19:29:46;;;;;;;8.80;2.78;;;;;;;5.90;100.00;101425.06;10460792;28;20053;-54
2022/02/05 19:34:50;;;;;;;9.93;3.13;;;;;;;5.85;100.00;101431.28;10460694;28;20064;-56
2022/02/05 19:39:53;;;;;;;14.15;3.95;;;;;;;5.81;100.00;101407.13;10460436;28;20071;-56
2022/02/05 19:44:57;;;;;;;22.58;4.35;;;;;;;5.68;100.00;101421.34;10460212;28;20114;-56
2022/02/05 19:50:00;;;;;;;8.38;2.97;;;;;;;5.72;100.00;101404.78;10460350;28;20056;-55
2022/02/05 19:55:04;;;;;;;12.70;3.15;;;;;;;5.64;100.00;101407.59;10459829;28;20401;-55
2022/02/05 20:00:07;;;;;;;6.68;2.75;;;;;;;5.64;100.00;101402.41;10459374;28;20424;-56
2022/02/05 20:05:19;;;;;;;9.88;3.03;;;;;;;5.58;100.00;101389.56;10459571;28;20068;-58
2022/02/05 20:10:21;;;;;;;10.90;2.90;;;;;;;5.55;100.00;101389.66;10459102;28;20041;-54
2022/02/05 20:15:24;;;;;;;10.68;3.25;;;;;;;5.54;100.00;101375.81;10458968;28;20045;-55
2022/02/05 20:20:27;;;;;;;11.38;3.03;;;;;;;5.60;100.00;101372.22;10457763;28;20537;-56
2022/02/05 20:25:38;;;;;;;10.60;3.45;;;;;;;5.63;100.00;101358.28;10458529;28;20405;-57
2022/02/05 20:30:41;;;;;;;11.20;3.50;;;;;;;5.62;100.00;101338.41;10458406;28;20052;-53
2022/02/05 20:35:43;;;;;;;11.45;4.05;;;;;;;5.66;100.00;101340.00;10457340;28;20045;-58
2022/02/05 20:40:46;;;;;;;11.57;3.15;;;;;;;5.71;100.00;101336.38;10457747;28;20405;-55
2022/02/05 20:45:51;;;;;;;8.45;2.67;;;;;;;5.79;100.00;101327.53;10457692;28;20067;-53
2022/02/05 20:51:01;;;;;;;13.52;3.53;;;;;;;5.74;100.00;101331.09;10457986;28;20041;-56
2022/02/05 20:56:04;;;;;;;17.25;3.58;;;;;;;5.76;100.00;101320.66;10456907;28;20053;-55
2022/02/05 21:01:06;;;;;;;14.70;3.42;;;;;;;5.76;100.00;101320.66;10457119;28;20041;-57
2022/02/05 21:06:09;;;;;;;14.55;4.00;;;;;;;5.79;100.00;101311.94;10457608;28;20111;-54
2022/02/05 21:11:11;;;;;;;10.80;2.92;;;;;;;5.82;100.00;101296.25;10456904;28;20053;-52
2022/02/05 21:16:13;;;;;;;9.73;2.83;;;;;;;5.76;100.00;101294.66;10457084;28;20052;-58
2022/02/05 21:21:16;;;;;;;10.43;3.20;;;;;;;5.73;100.00;101297.34;10456878;28;20063;-57
2022/02/05 21:26:19;;;;;;;15.35;3.58;;;;;;;5.76;100.00;101284.28;10456777;28;20053;-55
2022/02/05 21:31:47;;;;;;;9.88;3.10;;;;;;;5.77;100.00;101273.84;10456516;28;20053;-53
2022/02/05 21:36:49;;;;;;;8.27;3.15;;;;;;;5.68;100.00;101281.06;10456344;28;20045;-57
2022/02/05 21:41:52;;;;;;;14.93;4.30;;;;;;;5.72;100.00;101265.34;10456328;28;20049;-56
2022/02/05 21:46:56;;;;;;;5.40;3.15;;;;;;;5.77;100.00;101265.22;10456011;28;20068;-54
2022/02/05 21:52:04;;;;;;;10.40;4.20;;;;;;;5.75;100.00;101248.81;10456142;28;20056;-56
2022/02/05 21:57:15;;;;;;;18.90;3.55;;;;;;;5.75;100.00;101246.22;10456650;28;20056;-55
2022/02/05 22:02:23;;;;;;;14.20;3.72;;;;;;;5.85;100.00;101242.44;10456011;28;20048;-55
2022/02/05 22:07:26;;;;;;;17.30;3.25;;;;;;;5.79;100.00;101236.59;10456208;28;20071;-53
2022/02/05 22:12:29;;;;;;;13.95;3.65;;;;;;;5.81;100.00;101214.00;10454785;28;20055;-54
2022/02/05 22:17:31;;;;;;;15.00;4.18;;;;;;;5.83;100.00;101219.97;10454347;28;20401;-51
2022/02/05 22:22:34;;;;;;;13.45;3.55;;;;;;;5.85;100.00;101210.38;10455943;28;20049;-52
2022/02/05 22:27:36;;;;;;;12.35;3.90;;;;;;;5.91;100.00;101205.00;10455457;28;20049;-54
2022/02/05 22:32:39;;;;;;;13.57;3.83;;;;;;;5.93;100.00;101191.09;10455019;28;20049;-56
2022/02/05 22:37:42;;;;;;;23.15;3.92;;;;;;;5.84;100.00;101201.75;10455242;28;20045;-54
2022/02/05 22:42:44;;;;;;;12.02;3.40;;;;;;;5.94;100.00;101195.38;10459964;28;20061;-53
2022/02/05 22:47:46;;;;;;;11.68;4.25;;;;;;;5.83;100.00;101191.41;10462465;28;20412;-55
2022/02/05 22:52:49;;;;;;;8.75;3.38;;;;;;;5.94;100.00;101168.53;10462275;28;20056;-55
2022/02/05 22:57:52;;;;;;;12.25;3.40;;;;;;;5.92;100.00;101170.34;10461888;28;20041;-54
2022/02/05 23:02:54;;;;;;;12.68;4.40;;;;;;;5.85;100.00;101151.50;10462014;28;20120;-54
2022/02/05 23:07:57;;;;;;;12.55;3.40;;;;;;;5.90;100.00;101166.91;10462049;28;20057;-57
2022/02/05 23:40:36;;;;;;;14.07;3.78;;;;;;;5.98;100.00;101099.13;10460231;28;20052;-54
2022/02/05 23:45:10;;;;;;;12.63;3.97;;;;;;;5.93;100.00;101074.13;10461110;28;20053;-57
2022/02/05 23:50:13;;;;;;;12.32;3.78;;;;;;;5.97;100.00;101081.81;10460592;28;20069;-57
2022/02/05 23:55:15;;;;;;;20.38;4.25;;;;;;;6.00;100.00;101073.94;10458772;28;20053;-56
